Palm Springs, CA

3:56 PM PST on February 26, 2017 (GMT -0800)
PS Ruth Hardy Park @ Fruit Loop | | Change Station

Elev 502 ft 33.84 °N, 116.54 °W | Updated 12 seconds ago

Clear
Clear
62.1 °F
Feels Like 62.1 °F
N
6.0
Wind Variable Wind from SSW

Today
High -- | Low -- °F
--% Chance of Precip.
Yesterday
High -- | Low -- °F
Precip. -- in
Pressure 29.88 in
Visibility 10.0 miles
Clouds Clear
Dew Point 44 °F
Humidity 51%
Rainfall 0.00 in
Snow Depth Not available.
6:17 AM 5:40 PM
New Moon, 0% visible
METAR KPSP 262353Z 32012KT 10SM CLR 18/07 A2987 RMK AO2 SLP116 T01780067 10206 20156 56013
Pressure 29.88 in
Visibility 10.0 miles
Clouds Clear
Dew Point 44 °F
Humidity 51%
Rainfall 0.00 in
Snow Depth Not available.
6:17 AM 5:40 PM
New Moon, 0% visible
METAR KPSP 262353Z 32012KT 10SM CLR 18/07 A2987 RMK AO2 SLP116 T01780067 10206 20156 56013

Get Your Daily Forecast Email!

Thanks for signing up!

Be on the lookout for a verification email in your inbox.

You'll start receiving the daily forecast at 8 AM.

×

10-Day Weather Forecast

Almanac

Astronomy

Feb. 26, 2017 Rise Set
Actual Time
Civil Twilight
Nautical Twilight
Astronomical Twilight
Moon
Length of Visible Light
Length of Day
Tomorrow will be .
, % of the Moon is Illuminated

Today's Extremes

State Highs State Lows

Community

WunderPhotos

Upload Photos

1,962,540 photos uploaded!

WunderBlog® & News

Nearby

Air Quality

  Air Quality AQ Index Pollutant
Not available.

Snow Depth

Station Depth Elevation

Earthquake Activity

City Distance Mag. Time & Date
Minimum magnitude displayed is 2.5.

Coastal Water Temperatures

Place Temperature

Stations

Nearby Weather Stations

Station Location Temp. Windchill Dew Point Humidity Wind Precip. Elev Updated Type
                   

Watches & Warnings

There are currently no watches in effect.